createdAt,value
2019-03-18T00:00:19.441Z,9.84
2019-03-18T00:02:48.094Z,9.59
2019-03-18T00:05:16.835Z,9.70
2019-03-18T00:07:45.526Z,9.91
2019-03-18T00:10:14.188Z,9.91
2019-03-18T00:12:42.928Z,9.80
2019-03-18T00:15:11.593Z,9.67
2019-03-18T00:17:40.258Z,9.60
2019-03-18T00:20:10.237Z,9.56
2019-03-18T00:22:38.899Z,9.46
2019-03-18T00:25:10.528Z,9.51
2019-03-18T00:27:39.154Z,9.56
2019-03-18T00:30:13.006Z,9.48
2019-03-18T00:32:41.726Z,9.46
2019-03-18T00:35:10.631Z,9.25
2019-03-18T00:37:39.332Z,9.24
2019-03-18T00:40:13.449Z,9.32
2019-03-18T00:42:42.122Z,9.28
2019-03-18T00:45:15.335Z,9.29
2019-03-18T00:47:41.668Z,9.31
2019-03-18T00:50:12.638Z,9.28
2019-03-18T00:52:41.520Z,9.24
2019-03-18T00:55:10.243Z,9.15
2019-03-18T00:57:38.997Z,9.13
2019-03-18T01:00:19.051Z,9.06
2019-03-18T01:02:49.994Z,8.95
2019-03-18T01:05:18.822Z,8.91
2019-03-18T01:07:47.474Z,8.73
2019-03-18T01:10:17.997Z,8.77
2019-03-18T01:12:46.701Z,8.73
2019-03-18T01:15:27.569Z,8.73
2019-03-18T01:17:45.951Z,8.65
2019-03-18T01:20:15.111Z,8.62
2019-03-18T01:22:43.831Z,8.65
2019-03-18T01:25:12.688Z,8.63
2019-03-18T01:27:41.558Z,8.65
2019-03-18T01:30:16.079Z,8.54
2019-03-18T01:32:44.738Z,8.53
2019-03-18T01:35:13.498Z,8.49
2019-03-18T01:37:42.161Z,8.34
2019-03-18T01:40:14.514Z,8.21
2019-03-18T01:42:43.177Z,8.30
2019-03-18T01:45:12.172Z,8.26
2019-03-18T01:47:40.824Z,8.36
2019-03-18T01:50:11.870Z,8.40
2019-03-18T01:52:40.538Z,8.34
2019-03-18T01:55:09.195Z,8.36
2019-03-18T01:57:38.535Z,8.40
2019-03-18T02:00:12.729Z,8.45
2019-03-18T02:02:41.474Z,8.40
2019-03-18T02:05:10.952Z,8.49
2019-03-18T02:07:39.610Z,8.55
2019-03-18T02:10:16.768Z,8.58
2019-03-18T02:12:45.449Z,8.47
2019-03-18T02:15:15.118Z,8.44
2019-03-18T02:17:43.790Z,8.49
2019-03-18T02:20:14.555Z,8.46
2019-03-18T02:22:43.207Z,8.31
2019-03-18T02:25:12.279Z,8.29
2019-03-18T02:27:41.237Z,8.21
2019-03-18T02:30:12.554Z,8.01
2019-03-18T02:32:41.225Z,8.14
2019-03-18T02:35:09.867Z,8.04
2019-03-18T02:37:40.088Z,8.00
2019-03-18T02:40:10.261Z,7.92
2019-03-18T02:42:38.926Z,7.92
2019-03-18T02:45:11.521Z,7.97
2019-03-18T02:47:40.277Z,7.88
2019-03-18T02:50:09.836Z,7.82
2019-03-18T02:52:38.493Z,7.68
2019-03-18T02:55:08.161Z,7.65
2019-03-18T02:57:36.969Z,7.52
2019-03-18T03:00:11.302Z,7.49
2019-03-18T03:02:39.994Z,7.41
2019-03-18T03:05:10.380Z,7.45
2019-03-18T03:07:39.097Z,7.61
2019-03-18T03:10:12.079Z,7.52
2019-03-18T03:12:40.785Z,7.48
2019-03-18T03:15:11.820Z,7.52
2019-03-18T03:17:40.519Z,7.40
2019-03-18T03:20:10.786Z,7.34
2019-03-18T03:22:39.544Z,7.46
2019-03-18T03:25:09.390Z,7.43
2019-03-18T03:27:38.231Z,7.40
2019-03-18T03:30:11.954Z,7.43
2019-03-18T03:32:40.779Z,7.46
2019-03-18T03:35:09.654Z,7.45
2019-03-18T03:37:38.307Z,7.57
2019-03-18T03:40:09.074Z,7.46
2019-03-18T03:42:37.735Z,7.40
2019-03-18T03:45:08.811Z,7.33
2019-03-18T03:47:37.488Z,7.18
2019-03-18T03:50:08.649Z,7.06
2019-03-18T03:52:37.286Z,7.05
2019-03-18T03:55:08.555Z,7.05
2019-03-18T03:57:37.218Z,6.95
2019-03-18T04:00:11.409Z,6.98
2019-03-18T04:02:40.126Z,6.98
2019-03-18T04:05:09.304Z,6.96
2019-03-18T04:07:38.046Z,6.86
2019-03-18T04:10:09.411Z,6.89
2019-03-18T04:12:38.060Z,6.83
2019-03-18T04:15:09.566Z,6.82
2019-03-18T04:17:38.230Z,6.87
2019-03-18T04:20:10.008Z,6.86
2019-03-18T04:22:38.671Z,6.80
2019-03-18T04:25:08.539Z,6.79
2019-03-18T04:27:37.183Z,6.70
2019-03-18T04:30:08.771Z,6.70
2019-03-18T04:32:37.459Z,6.73
2019-03-18T04:35:06.793Z,6.76
2019-03-18T04:37:35.457Z,6.78
2019-03-18T04:40:04.414Z,6.86
2019-03-18T04:42:33.148Z,6.86
2019-03-18T04:45:01.814Z,6.83
2019-03-18T04:47:30.463Z,7.12
2019-03-18T04:49:59.123Z,7.12
2019-03-18T04:52:27.891Z,7.18
2019-03-18T04:54:56.554Z,7.28
2019-03-18T04:57:25.221Z,7.28
2019-03-18T04:59:53.930Z,7.39
2019-03-18T05:02:22.575Z,7.54
2019-03-18T05:04:51.235Z,7.83
2019-03-18T05:07:19.996Z,7.77
2019-03-18T05:09:48.661Z,8.11
2019-03-18T05:12:17.400Z,8.20
2019-03-18T05:14:46.059Z,8.36
2019-03-18T05:17:26.179Z,8.62
2019-03-18T05:19:45.115Z,8.75
2019-03-18T05:22:13.782Z,8.60
2019-03-18T05:24:42.451Z,9.01
2019-03-18T05:27:11.114Z,9.13
2019-03-18T05:29:39.877Z,9.41
2019-03-18T05:32:08.539Z,9.87
2019-03-18T05:34:37.195Z,10.20
2019-03-18T05:37:05.875Z,10.46
2019-03-18T05:39:34.536Z,9.95
2019-03-18T05:42:03.282Z,9.77
2019-03-18T05:44:32.127Z,10.27
2019-03-18T05:47:00.898Z,10.87
2019-03-18T05:49:29.561Z,11.66
2019-03-18T05:51:58.229Z,12.20
2019-03-18T05:54:26.889Z,12.47
2019-03-18T05:56:55.561Z,12.95
2019-03-18T05:59:24.228Z,13.27
2019-03-18T06:01:52.981Z,13.35
2019-03-18T06:04:21.721Z,13.87
2019-03-18T06:06:50.394Z,13.67
2019-03-18T06:09:19.050Z,14.23
2019-03-18T06:11:47.771Z,14.84
2019-03-18T06:14:16.462Z,15.28
2019-03-18T06:16:45.152Z,15.24
2019-03-18T06:19:13.835Z,15.07
2019-03-18T06:21:42.554Z,15.21
2019-03-18T06:26:42.513Z,16.31
2019-03-18T06:29:11.476Z,16.36
2019-03-18T06:31:40.216Z,16.65
2019-03-18T06:34:08.960Z,16.57
2019-03-18T06:36:37.624Z,16.68
2019-03-18T06:39:07.095Z,17.62
2019-03-18T06:41:36.047Z,17.89
2019-03-18T06:44:04.754Z,18.55
2019-03-18T06:46:33.397Z,18.14
2019-03-18T06:49:02.132Z,18.51
2019-03-18T06:51:30.805Z,19.23
2019-03-18T06:53:59.746Z,20.17
2019-03-18T06:56:28.529Z,19.88
2019-03-18T06:58:57.195Z,19.88
2019-03-18T07:01:25.954Z,19.90
2019-03-18T07:03:54.624Z,19.91
2019-03-18T07:06:23.323Z,20.49
2019-03-18T07:08:56.759Z,20.49
2019-03-18T07:11:25.545Z,21.35
2019-03-18T07:13:54.283Z,20.75
2019-03-18T07:16:22.958Z,20.82
2019-03-18T07:18:51.710Z,22.12
2019-03-18T07:21:20.419Z,22.89
2019-03-18T07:23:49.627Z,23.20
2019-03-18T07:26:18.276Z,23.06
2019-03-18T07:28:46.976Z,23.39
2019-03-18T07:31:15.641Z,24.24
2019-03-18T07:33:45.882Z,24.90
2019-03-18T07:36:14.552Z,25.31
2019-03-18T07:38:43.453Z,25.15
2019-03-18T07:41:12.162Z,25.40
2019-03-18T07:43:40.986Z,25.93
2019-03-18T07:46:09.891Z,26.52
2019-03-18T07:48:38.572Z,27.12
2019-03-18T07:51:07.474Z,27.59
2019-03-18T07:53:36.425Z,26.27
2019-03-18T07:56:05.266Z,26.07
2019-03-18T07:58:34.388Z,26.92
2019-03-18T08:01:03.549Z,26.96
2019-03-18T08:03:32.458Z,27.66
2019-03-18T08:06:01.329Z,28.38
2019-03-18T08:08:30.102Z,28.79
2019-03-18T08:10:59.086Z,29.30
2019-03-18T08:13:27.776Z,29.33
2019-03-18T08:15:56.499Z,29.68
2019-03-18T08:18:25.448Z,30.39
2019-03-18T08:20:54.207Z,30.93
2019-03-18T08:23:22.918Z,30.77
2019-03-18T08:25:51.921Z,29.20
2019-03-18T08:28:20.679Z,30.01
2019-03-18T08:30:49.634Z,31.14
2019-03-18T08:33:19.765Z,31.12
2019-03-18T08:35:48.454Z,32.17
2019-03-18T08:38:17.380Z,31.55
2019-03-18T08:40:46.634Z,31.82
2019-03-18T08:43:15.586Z,31.57
2019-03-18T08:45:46.304Z,31.24
2019-03-18T08:48:15.127Z,31.87
2019-03-18T08:50:44.176Z,33.27
2019-03-18T08:53:12.852Z,31.94
2019-03-18T08:55:41.834Z,31.69
2019-03-18T08:58:10.579Z,31.54
2019-03-18T09:00:39.293Z,31.55
2019-03-18T09:03:08.074Z,32.52
2019-03-18T09:05:36.794Z,32.99
2019-03-18T09:08:05.603Z,32.89
2019-03-18T09:10:34.467Z,33.84
2019-03-18T09:13:03.264Z,34.18
2019-03-18T09:15:32.002Z,34.08
2019-03-18T09:18:00.801Z,33.74
2019-03-18T09:20:29.546Z,33.76
2019-03-18T09:22:58.287Z,33.07
2019-03-18T09:25:26.979Z,34.13
2019-03-18T09:27:55.700Z,34.93
2019-03-18T09:30:24.431Z,35.03
2019-03-18T09:32:53.056Z,32.54
2019-03-18T09:35:21.795Z,34.60
2019-03-18T09:37:50.792Z,35.04
2019-03-18T09:40:19.471Z,34.38
2019-03-18T09:42:48.173Z,34.59
2019-03-18T09:45:17.961Z,33.81
2019-03-18T09:47:47.004Z,34.30
2019-03-18T09:50:16.791Z,34.51
2019-03-18T09:52:45.606Z,34.69
2019-03-18T09:55:14.336Z,35.58
2019-03-18T09:57:43.437Z,36.11
2019-03-18T10:00:20.842Z,37.37
2019-03-18T10:02:49.723Z,37.70
2019-03-18T10:05:18.437Z,38.14
2019-03-18T10:07:47.126Z,35.68
2019-03-18T10:10:16.309Z,34.69
2019-03-18T10:12:44.997Z,35.96
2019-03-18T10:15:17.966Z,37.24
2019-03-18T10:17:46.977Z,38.06
2019-03-18T10:20:15.766Z,37.45
2019-03-18T10:22:44.584Z,38.95
2019-03-18T10:25:13.349Z,39.65
2019-03-18T10:27:42.141Z,39.43
2019-03-18T10:30:12.946Z,39.12
2019-03-18T10:32:41.946Z,38.88
2019-03-18T10:35:11.222Z,40.01
2019-03-18T10:37:39.913Z,39.44
2019-03-18T10:40:10.999Z,39.93
2019-03-18T10:42:39.710Z,37.78
2019-03-18T10:45:11.137Z,39.05
2019-03-18T10:47:39.954Z,40.63
2019-03-18T10:50:14.085Z,40.22
2019-03-18T10:52:42.879Z,41.07
2019-03-18T10:55:11.613Z,41.36
2019-03-18T10:57:40.607Z,39.89
2019-03-18T11:00:15.227Z,40.56
2019-03-18T11:02:45.211Z,40.55
2019-03-18T11:05:15.136Z,41.83
2019-03-18T11:07:43.940Z,41.84
2019-03-18T11:10:16.712Z,39.95
2019-03-18T11:12:45.618Z,39.67
2019-03-18T11:15:22.118Z,38.25
2019-03-18T11:17:52.087Z,40.79
2019-03-18T11:20:21.343Z,41.47
2019-03-18T11:22:50.432Z,39.44
2019-03-18T11:25:19.263Z,38.98
2019-03-18T11:27:48.012Z,39.84
2019-03-18T11:30:18.632Z,40.89
2019-03-18T11:32:47.739Z,40.30
2019-03-18T11:35:16.387Z,39.77
2019-03-18T11:37:45.270Z,40.86
2019-03-18T11:40:19.172Z,39.87
2019-03-18T11:42:48.329Z,40.22
2019-03-18T11:45:18.453Z,42.04
2019-03-18T11:47:47.798Z,42.03
2019-03-18T11:50:19.987Z,40.76
2019-03-18T11:52:48.832Z,41.44
2019-03-18T11:55:19.335Z,41.79
2019-03-18T11:57:47.966Z,42.82
2019-03-18T12:00:23.704Z,41.60
2019-03-18T12:02:52.491Z,39.37
2019-03-18T12:05:22.121Z,41.45
2019-03-18T12:07:50.819Z,41.72
2019-03-18T12:10:20.826Z,40.78
2019-03-18T12:12:49.515Z,40.80
2019-03-18T12:15:21.733Z,40.88
2019-03-18T12:17:50.918Z,39.93
2019-03-18T12:20:24.732Z,35.01
2019-03-18T12:22:50.110Z,32.29
2019-03-18T12:25:18.861Z,35.65
2019-03-18T12:27:47.581Z,37.27
2019-03-18T12:30:21.053Z,38.02
2019-03-18T12:32:49.994Z,39.69
2019-03-18T12:35:18.731Z,41.02
2019-03-18T12:37:47.395Z,40.75
2019-03-18T12:40:17.067Z,36.25
2019-03-18T12:42:46.271Z,36.17
2019-03-18T12:45:19.134Z,38.56
2019-03-18T12:47:48.373Z,40.14
2019-03-18T12:50:36.296Z,41.61
2019-03-18T12:52:50.544Z,41.56
2019-03-18T12:55:19.632Z,40.98
2019-03-18T12:57:48.491Z,42.12
2019-03-18T13:00:36.772Z,39.93
2019-03-18T13:03:05.824Z,38.25
2019-03-18T13:05:34.586Z,38.27
2019-03-18T13:08:03.399Z,39.13
2019-03-18T13:10:32.083Z,37.56
2019-03-18T13:13:00.903Z,39.03
2019-03-18T13:15:29.586Z,39.29
2019-03-18T13:17:58.779Z,39.25
2019-03-18T13:20:29.954Z,40.60
2019-03-18T13:22:58.920Z,40.75
2019-03-18T13:25:27.789Z,41.82
2019-03-18T13:27:56.703Z,40.38
2019-03-18T13:30:25.784Z,39.84
2019-03-18T13:32:54.596Z,38.97
2019-03-18T13:35:23.471Z,39.61
2019-03-18T13:37:55.025Z,40.59
2019-03-18T13:40:23.770Z,40.27
2019-03-18T13:42:52.641Z,40.20
2019-03-18T13:45:24.963Z,40.15
2019-03-18T13:47:53.983Z,39.55
2019-03-18T13:50:23.355Z,39.24
2019-03-18T13:52:52.222Z,39.33
2019-03-18T13:55:20.959Z,40.76
2019-03-18T13:57:49.724Z,39.24
2019-03-18T14:00:20.090Z,39.04
2019-03-18T14:02:48.880Z,37.17
2019-03-18T14:05:17.537Z,35.77
2019-03-18T14:07:58.871Z,34.43
2019-03-18T14:10:23.509Z,35.52
2019-03-18T14:12:52.286Z,35.76
2019-03-18T14:15:26.232Z,34.95
2019-03-18T14:18:00.725Z,33.98
2019-03-18T14:20:29.847Z,33.84
2019-03-18T14:22:58.600Z,32.99
2019-03-18T14:25:27.381Z,33.01
2019-03-18T14:27:56.056Z,33.22
2019-03-18T14:30:25.058Z,34.16
2019-03-18T14:32:53.833Z,33.60
2019-03-18T14:35:22.881Z,33.27
2019-03-18T14:37:51.580Z,33.41
2019-03-18T14:40:26.477Z,33.03
2019-03-18T14:42:55.201Z,33.70
2019-03-18T14:45:27.370Z,33.48
2019-03-18T14:47:56.296Z,33.62
2019-03-18T14:50:25.120Z,32.31
2019-03-18T14:52:53.825Z,31.15
2019-03-18T14:55:22.541Z,31.57
2019-03-18T14:57:51.254Z,31.26
2019-03-18T15:00:27.914Z,30.25
2019-03-18T15:02:56.706Z,29.74
2019-03-18T15:05:25.457Z,28.84
2019-03-18T15:07:54.145Z,27.62
2019-03-18T15:10:24.751Z,26.58
2019-03-18T15:13:00.801Z,25.39
2019-03-18T15:15:43.934Z,24.55
2019-03-18T15:18:13.021Z,23.99
2019-03-18T15:20:41.680Z,23.63
2019-03-18T15:23:10.530Z,23.33
2019-03-18T15:25:39.219Z,23.02
2019-03-18T15:28:07.953Z,22.68
2019-03-18T15:30:36.634Z,22.47
2019-03-18T15:33:05.526Z,22.34
2019-03-18T15:35:34.214Z,22.17
2019-03-18T15:38:02.874Z,22.01
2019-03-18T15:40:31.564Z,21.90
2019-03-18T15:43:00.383Z,21.81
2019-03-18T15:45:29.152Z,21.69
2019-03-18T15:47:57.912Z,21.57
2019-03-18T15:50:27.432Z,21.43
2019-03-18T15:52:56.092Z,21.32
2019-03-18T15:55:25.062Z,21.19
2019-03-18T15:57:53.703Z,21.10
2019-03-18T16:00:26.539Z,20.95
2019-03-18T16:02:55.348Z,20.86
2019-03-18T16:05:24.255Z,20.70
2019-03-18T16:07:53.005Z,20.58
2019-03-18T16:10:21.774Z,20.35
2019-03-18T16:12:50.446Z,20.13
2019-03-18T16:15:19.610Z,19.93
2019-03-18T16:17:48.299Z,19.83
2019-03-18T16:20:22.477Z,19.70
2019-03-18T16:22:51.156Z,19.49
2019-03-18T16:25:19.890Z,19.49
2019-03-18T16:27:48.654Z,19.36
2019-03-18T16:30:21.230Z,19.30
2019-03-18T16:32:49.903Z,19.30
2019-03-18T16:35:18.687Z,19.17
2019-03-18T16:37:57.246Z,19.12
2019-03-18T16:40:32.443Z,19.08
2019-03-18T16:43:05.879Z,18.94
2019-03-18T16:45:34.561Z,18.96
2019-03-18T16:48:03.226Z,18.83
2019-03-18T16:50:32.296Z,18.71
2019-03-18T16:53:01.173Z,18.56
2019-03-18T16:55:29.860Z,18.52
2019-03-18T16:57:58.533Z,18.44
2019-03-18T17:00:28.131Z,18.43
2019-03-18T17:02:56.794Z,18.43
2019-03-18T17:05:25.461Z,18.23
2019-03-18T17:07:54.664Z,18.15
2019-03-18T17:10:23.421Z,18.08
2019-03-18T17:12:52.130Z,17.83
2019-03-18T17:15:21.421Z,18.00
2019-03-18T17:17:50.082Z,17.90
2019-03-18T17:20:18.808Z,17.84
2019-03-18T17:22:49.943Z,17.93
2019-03-18T17:25:22.678Z,17.86
2019-03-18T17:27:51.338Z,17.75
2019-03-18T17:30:20.604Z,17.74
2019-03-18T17:32:49.513Z,17.65
2019-03-18T17:35:18.139Z,17.82
2019-03-18T17:37:46.865Z,17.84
2019-03-18T17:40:18.451Z,17.88
2019-03-18T17:42:47.165Z,18.06
2019-03-18T17:45:19.256Z,18.03
2019-03-18T17:47:48.031Z,17.91
2019-03-18T17:50:25.542Z,17.59
2019-03-18T17:53:02.209Z,17.36
2019-03-18T17:55:24.603Z,17.15
2019-03-18T17:57:53.302Z,16.90
2019-03-18T18:00:26.253Z,16.85
2019-03-18T18:02:54.990Z,16.86
2019-03-18T18:05:23.653Z,16.73
2019-03-18T18:07:52.337Z,16.62
2019-03-18T18:10:21.012Z,16.53
2019-03-18T18:12:49.687Z,16.38
2019-03-18T18:15:18.502Z,16.42
2019-03-18T18:17:47.175Z,16.68
2019-03-18T18:20:16.245Z,16.70
2019-03-18T18:22:45.214Z,16.82
2019-03-18T18:25:14.588Z,16.68
2019-03-18T18:27:43.275Z,16.72
2019-03-18T18:30:19.625Z,16.81
2019-03-18T18:32:48.496Z,16.85
2019-03-18T18:35:17.368Z,16.81
2019-03-18T18:37:46.075Z,16.53
2019-03-18T18:40:19.610Z,16.38
2019-03-18T18:42:48.253Z,16.23
2019-03-18T18:45:16.923Z,16.07
2019-03-18T18:47:45.597Z,15.91
2019-03-18T18:50:14.565Z,15.86
2019-03-18T18:52:43.234Z,15.70
2019-03-18T18:55:13.097Z,15.65
2019-03-18T18:57:41.766Z,15.62
2019-03-18T19:00:16.174Z,15.52
2019-03-18T19:02:44.850Z,15.45
2019-03-18T19:05:14.613Z,15.50
2019-03-18T19:07:43.586Z,15.29
2019-03-18T19:10:14.695Z,15.33
2019-03-18T19:12:43.360Z,15.13
2019-03-18T19:15:29.020Z,15.17
2019-03-18T19:17:57.671Z,15.01
2019-03-18T19:20:26.366Z,15.01
2019-03-18T19:22:55.330Z,15.04
2019-03-18T19:25:24.367Z,14.96
2019-03-18T19:27:53.034Z,14.75
2019-03-18T19:30:22.705Z,14.50
2019-03-18T19:32:51.368Z,14.36
2019-03-18T19:35:20.052Z,14.26
2019-03-18T19:37:48.723Z,14.20
2019-03-18T19:40:21.472Z,14.15
2019-03-18T19:42:50.168Z,14.07
2019-03-18T19:45:18.912Z,13.99
2019-03-18T19:47:47.580Z,13.97
2019-03-18T19:50:27.163Z,13.99
2019-03-18T19:52:55.934Z,13.91
2019-03-18T19:55:24.607Z,13.95
2019-03-18T19:57:53.279Z,13.95
2019-03-18T20:00:24.019Z,13.92
2019-03-18T20:02:52.785Z,13.91
2019-03-18T20:05:21.493Z,13.84
2019-03-18T20:07:50.159Z,13.79
2019-03-18T20:10:20.053Z,13.76
2019-03-18T20:12:49.032Z,13.75
2019-03-18T20:15:20.963Z,13.78
2019-03-18T20:17:49.748Z,13.99
2019-03-18T20:20:21.050Z,14.05
2019-03-18T20:22:50.106Z,13.91
2019-03-18T20:25:18.802Z,13.84
2019-03-18T20:27:47.467Z,13.84
2019-03-18T20:30:22.789Z,13.75
2019-03-18T20:32:51.452Z,13.73
2019-03-18T20:35:24.059Z,13.68
2019-03-18T20:37:52.734Z,13.75
2019-03-18T20:40:21.718Z,13.77
2019-03-18T20:42:50.518Z,13.86
2019-03-18T20:45:20.451Z,13.93
2019-03-18T20:47:49.114Z,13.98
2019-03-18T20:50:18.995Z,13.96
2019-03-18T20:52:47.666Z,13.82
2019-03-18T20:55:16.641Z,13.61
2019-03-18T20:57:45.327Z,13.44
2019-03-18T21:00:20.787Z,13.25
2019-03-18T21:02:49.562Z,13.10
2019-03-18T21:05:18.252Z,13.10
2019-03-18T21:07:47.042Z,13.02
2019-03-18T21:10:20.207Z,12.99
2019-03-18T21:12:48.877Z,12.87
2019-03-18T21:15:18.140Z,12.78
2019-03-18T21:17:47.114Z,12.94
2019-03-18T21:20:18.144Z,13.12
2019-03-18T21:22:46.911Z,13.22
2019-03-18T21:25:15.697Z,13.17
2019-03-18T21:27:44.366Z,13.18
2019-03-18T21:30:15.963Z,13.17
2019-03-18T21:32:44.623Z,13.16
2019-03-18T21:35:13.407Z,13.14
2019-03-18T21:37:42.098Z,13.09
2019-03-18T21:40:13.707Z,13.09
2019-03-18T21:42:42.390Z,13.10
2019-03-18T21:45:16.250Z,13.07
2019-03-18T21:47:45.021Z,13.17
2019-03-18T21:50:15.513Z,13.16
2019-03-18T21:52:44.224Z,13.06
2019-03-18T21:55:14.498Z,13.18
2019-03-18T21:57:43.473Z,13.22
2019-03-18T22:00:20.241Z,13.18
2019-03-18T22:02:48.906Z,13.20
2019-03-18T22:05:17.691Z,13.08
2019-03-18T22:07:46.369Z,12.98
2019-03-18T22:10:18.880Z,12.89
2019-03-18T22:12:47.663Z,12.85
2019-03-18T22:15:17.140Z,12.70
2019-03-18T22:17:45.813Z,12.78
2019-03-18T22:20:16.027Z,12.87
2019-03-18T22:22:44.694Z,13.00
2019-03-18T22:25:14.274Z,12.90
2019-03-18T22:27:42.944Z,12.82
2019-03-18T22:30:13.925Z,12.95
2019-03-18T22:32:42.573Z,12.82
2019-03-18T22:35:11.447Z,12.62
2019-03-18T22:37:40.130Z,12.58
2019-03-18T22:40:14.340Z,12.49
2019-03-18T22:42:42.995Z,12.49
2019-03-18T22:45:13.665Z,12.46
2019-03-18T22:47:42.344Z,12.26
2019-03-18T22:50:12.822Z,12.21
2019-03-18T22:52:41.676Z,12.10
2019-03-18T22:55:12.408Z,12.08
2019-03-18T22:57:41.072Z,12.18
2019-03-18T23:00:25.884Z,11.72
2019-03-18T23:02:54.653Z,12.15
2019-03-18T23:05:23.414Z,11.90
2019-03-18T23:07:52.087Z,11.70
2019-03-18T23:10:20.749Z,11.53
2019-03-18T23:12:49.440Z,11.37
2019-03-18T23:15:18.205Z,11.23
2019-03-18T23:17:46.912Z,11.20
2019-03-18T23:20:15.574Z,11.16
2019-03-18T23:22:44.243Z,11.04
2019-03-18T23:25:12.899Z,11.03
2019-03-18T23:27:41.573Z,11.04
2019-03-18T23:30:13.054Z,11.09
2019-03-18T23:32:41.748Z,11.07
2019-03-18T23:35:10.607Z,11.02
2019-03-18T23:37:39.435Z,11.01
2019-03-18T23:40:14.905Z,11.08
2019-03-18T23:42:45.030Z,11.24
2019-03-18T23:45:14.176Z,11.23
2019-03-18T23:47:42.841Z,11.21
2019-03-18T23:50:15.818Z,11.27
2019-03-18T23:52:44.485Z,11.20
2019-03-18T23:55:19.602Z,11.38
2019-03-18T23:57:43.673Z,11.45
